Time;durP1;ratioP1;P1;durP2;ratioP2;P2;SDS_P1;SDS_P2;PMS_P1;PMS_P2;Temp;Humidity;BMP_temperature;BMP_pressure;BME280_temperature;BME280_humidity;BME280_pressure;Samples;Min_cycle;Max_cycle;Signal;HPM_P1;HPM_P2
2021/03/05 00:00:51;;;;;;;21.00;10.80;;;5.80;98.60;;;;;;4822024;29;20121;-76
2021/03/05 00:03:17;;;;;;;19.48;9.32;;;5.80;98.60;;;;;;4813936;29;20051;-80
2021/03/05 00:05:43;;;;;;;22.85;10.43;;;5.70;98.60;;;;;;4803069;29;20547;-78
2021/03/05 00:08:10;;;;;;;17.73;9.68;;;5.80;98.80;;;;;;4804262;29;20369;-78
2021/03/05 00:10:38;;;;;;;17.77;10.43;;;5.80;98.70;;;;;;4802770;29;20051;-78
2021/03/05 00:13:04;;;;;;;;;;;5.70;98.70;;;;;;4803837;29;20053;-77
2021/03/05 00:15:33;;;;;;;19.98;9.95;;;5.70;98.70;;;;;;4803697;29;19913;-77
2021/03/05 00:17:59;;;;;;;20.13;10.20;;;5.80;98.70;;;;;;4803005;29;20051;-77
2021/03/05 00:20:27;;;;;;;17.75;9.40;;;5.80;98.60;;;;;;4802732;29;20049;-77
2021/03/05 00:22:53;;;;;;;20.88;10.00;;;5.70;98.50;;;;;;4803842;29;20050;-77
2021/03/05 00:25:19;;;;;;;18.42;9.25;;;5.60;98.50;;;;;;4802965;29;20057;-76
2021/03/05 00:27:45;;;;;;;16.50;8.70;;;5.50;98.40;;;;;;4802037;29;20130;-77
2021/03/05 00:30:11;;;;;;;18.50;8.63;;;5.50;98.40;;;;;;4802774;29;20061;-77
2021/03/05 00:32:38;;;;;;;13.77;8.15;;;5.50;98.50;;;;;;4803621;29;20123;-77
2021/03/05 00:35:06;;;;;;;18.35;8.15;;;5.40;98.30;;;;;;4804757;29;20225;-76
2021/03/05 00:37:32;;;;;;;14.13;8.00;;;5.40;98.20;;;;;;4802035;29;20043;-77
2021/03/05 00:39:58;;;;;;;17.55;8.38;;;5.40;98.30;;;;;;4802868;29;20396;-78
2021/03/05 00:42:23;;;;;;;14.00;7.03;;;5.50;98.20;;;;;;4802999;29;20115;-77
2021/03/05 00:44:49;;;;;;;13.50;7.28;;;5.50;98.10;;;;;;4802582;29;20046;-76
2021/03/05 00:47:15;;;;;;;13.00;7.40;;;5.40;97.90;;;;;;4804333;29;20050;-77
2021/03/05 00:49:40;;;;;;;13.68;7.10;;;5.50;98.00;;;;;;4801803;29;20496;-77
2021/03/05 00:52:06;;;;;;;14.52;7.22;;;5.50;97.80;;;;;;4802851;29;20038;-77
2021/03/05 00:54:32;;;;;;;11.07;6.13;;;5.50;97.80;;;;;;4802448;29;20035;-76
2021/03/05 00:56:57;;;;;;;11.13;6.70;;;5.40;97.70;;;;;;4802641;29;20081;-77
2021/03/05 00:59:24;;;;;;;13.82;5.80;;;5.40;97.70;;;;;;4802972;29;20142;-77
2021/03/05 01:01:49;;;;;;;14.85;6.70;;;5.30;97.70;;;;;;4804304;29;20156;-78
2021/03/05 01:04:15;;;;;;;13.30;5.82;;;5.30;97.60;;;;;;4802541;29;20097;-76
2021/03/05 01:06:41;;;;;;;10.27;5.40;;;5.30;97.70;;;;;;4802635;29;20050;-76
2021/03/05 01:09:06;;;;;;;12.60;4.90;;;5.30;97.80;;;;;;4802291;29;20038;-77
2021/03/05 01:11:32;;;;;;;15.20;5.32;;;5.30;97.50;;;;;;4802392;29;20057;-77
2021/03/05 01:13:58;;;;;;;8.65;3.92;;;5.30;97.40;;;;;;4804065;29;20034;-76
2021/03/05 01:16:24;;;;;;;13.63;4.57;;;5.20;97.40;;;;;;4802363;29;20126;-77
2021/03/05 01:18:50;;;;;;;10.95;4.65;;;5.20;97.20;;;;;;4801261;29;20577;-77
2021/03/05 01:21:16;;;;;;;11.88;4.25;;;5.20;97.30;;;;;;4802480;29;20131;-78
2021/03/05 01:23:42;;;;;;;7.70;3.58;;;5.10;97.10;;;;;;4801417;29;20454;-77
2021/03/05 01:26:10;;;;;;;8.63;3.25;;;5.00;97.00;;;;;;4803881;29;20117;-76
2021/03/05 01:28:37;;;;;;;6.15;3.15;;;4.90;96.90;;;;;;4802634;29;20047;-76
2021/03/05 01:31:03;;;;;;;13.57;3.22;;;4.90;97.00;;;;;;4802222;29;20145;-77
2021/03/05 01:33:29;;;;;;;8.10;2.72;;;4.80;96.60;;;;;;4802184;29;20046;-78
2021/03/05 01:35:54;;;;;;;9.45;2.95;;;4.60;96.50;;;;;;4801247;29;20039;-76
2021/03/05 01:38:20;;;;;;;10.13;2.63;;;4.70;96.70;;;;;;4801661;29;20409;-77
2021/03/05 01:40:47;;;;;;;9.30;2.60;;;4.70;96.60;;;;;;4802942;29;20019;-77
2021/03/05 01:43:15;;;;;;;9.33;2.37;;;4.80;96.60;;;;;;4802616;29;20050;-78
2021/03/05 01:45:42;;;;;;;8.52;2.80;;;4.70;96.40;;;;;;4802355;29;20091;-79
2021/03/05 01:48:11;;;;;;;10.07;2.75;;;4.60;96.30;;;;;;4801729;29;20046;-78
2021/03/05 01:51:04;;;;;;;9.77;2.80;;;4.60;96.50;;;;;;4802515;29;20027;-78
2021/03/05 01:53:30;;;;;;;4.65;2.38;;;4.60;96.50;;;;;;4801219;29;20058;-78
2021/03/05 01:55:57;;;;;;;7.22;3.03;;;4.50;96.30;;;;;;4803625;29;20069;-79
2021/03/05 01:58:23;;;;;;;9.38;2.70;;;4.60;96.40;;;;;;4801952;29;20039;-78
2021/03/05 02:00:58;;;;;;;5.57;2.10;;;4.50;96.40;;;;;;4800903;29;20031;-78
2021/03/05 02:03:23;;;;;;;4.25;2.00;;;4.40;96.30;;;;;;4800583;29;20147;-77
2021/03/05 02:05:49;;;;;;;6.28;2.30;;;4.30;96.40;;;;;;4802202;29;20474;-78
2021/03/05 02:08:15;;;;;;;9.45;2.35;;;4.30;96.50;;;;;;4803498;29;20030;-78
2021/03/05 02:10:41;;;;;;;8.68;2.63;;;4.30;96.50;;;;;;4802090;29;20046;-78
2021/03/05 02:13:08;;;;;;;6.18;2.50;;;4.20;96.50;;;;;;4802107;29;20126;-75
2021/03/05 02:15:36;;;;;;;7.15;2.03;;;4.30;96.50;;;;;;4802274;29;20272;-75
2021/03/05 02:18:19;;;;;;;6.25;1.92;;;4.20;96.30;;;;;;4802236;29;20039;-77
2021/03/05 02:20:48;;;;;;;6.70;2.00;;;4.20;96.20;;;;;;4801354;29;20422;-79
2021/03/05 02:23:51;;;;;;;5.00;1.98;;;4.20;96.20;;;;;;4803388;29;20039;-77
2021/03/05 02:26:30;;;;;;;4.40;1.45;;;4.20;96.10;;;;;;4802027;29;20468;-77
2021/03/05 02:29:19;;;;;;;4.22;1.80;;;4.10;96.00;;;;;;4802406;29;20039;-77
2021/03/05 02:32:09;;;;;;;4.68;1.80;;;4.00;96.10;;;;;;4802208;29;20351;-77
2021/03/05 02:34:40;;;;;;;6.15;1.83;;;4.10;96.20;;;;;;4794148;29;20080;-76
2021/03/05 02:37:09;;;;;;;4.60;1.50;;;4.00;96.00;;;;;;4804953;29;20046;-76
2021/03/05 02:39:49;;;;;;;5.82;1.50;;;3.90;96.00;;;;;;4805221;29;20121;-76
2021/03/05 02:42:24;;;;;;;5.95;1.90;;;3.90;96.10;;;;;;4804037;29;20054;-78
2021/03/05 02:45:05;;;;;;;3.30;1.35;;;3.80;96.10;;;;;;4804237;29;20069;-76
2021/03/05 02:47:32;;;;;;;4.07;1.30;;;3.80;96.00;;;;;;4804738;29;20035;-77
2021/03/05 02:49:59;;;;;;;5.95;1.55;;;3.70;96.00;;;;;;4805363;29;20059;-77
2021/03/05 02:52:26;;;;;;;7.15;1.73;;;3.80;96.10;;;;;;4804801;29;20103;-77
2021/03/05 02:54:58;;;;;;;6.07;1.30;;;3.80;96.10;;;;;;4804933;29;20121;-76
2021/03/05 02:57:29;;;;;;;4.68;1.40;;;3.70;96.00;;;;;;4805059;29;20051;-77
2021/03/05 02:59:56;;;;;;;3.78;1.30;;;3.60;96.00;;;;;;4804866;29;20042;-77
2021/03/05 03:02:25;;;;;;;5.75;1.80;;;3.60;96.10;;;;;;4805292;29;20023;-76
2021/03/05 03:04:52;;;;;;;9.40;1.52;;;3.60;96.10;;;;;;4824393;29;20033;-78
2021/03/05 03:07:18;;;;;;;6.38;1.27;;;3.60;96.20;;;;;;4822254;29;20049;-76
2021/03/05 03:09:45;;;;;;;8.70;1.52;;;3.50;96.20;;;;;;4822597;29;20038;-76
2021/03/05 03:12:11;;;;;;;3.70;1.67;;;3.50;96.20;;;;;;4806752;29;20057;-77
2021/03/05 03:14:39;;;;;;;5.93;2.13;;;3.50;96.10;;;;;;4822224;29;20109;-76
2021/03/05 03:17:09;;;;;;;4.15;1.50;;;3.40;96.20;;;;;;4824132;29;20488;-75
2021/03/05 03:19:37;;;;;;;3.03;1.30;;;3.40;96.30;;;;;;4822636;29;20133;-75
2021/03/05 03:22:03;;;;;;;7.70;1.75;;;3.40;96.30;;;;;;4822554;29;20049;-75
2021/03/05 03:24:31;;;;;;;5.47;1.35;;;3.40;96.60;;;;;;4806426;29;20050;-75
2021/03/05 03:26:57;;;;;;;5.10;1.40;;;3.40;96.30;;;;;;4822337;29;20106;-76
2021/03/05 03:29:23;;;;;;;7.60;1.67;;;3.40;96.20;;;;;;4805945;29;20030;-77
2021/03/05 03:31:48;;;;;;;5.53;1.42;;;3.40;96.30;;;;;;4823978;29;20411;-75
2021/03/05 03:34:14;;;;;;;3.40;1.25;;;3.40;96.20;;;;;;4822803;29;20073;-76
2021/03/05 03:36:41;;;;;;;8.85;2.20;;;3.40;96.30;;;;;;4822375;29;20446;-75
2021/03/05 03:39:08;;;;;;;9.05;1.40;;;3.30;96.30;;;;;;4805955;29;20424;-76
2021/03/05 03:41:38;;;;;;;8.73;1.65;;;3.30;96.40;;;;;;4822133;29;20062;-75
2021/03/05 03:44:05;;;;;;;4.95;1.67;;;3.30;96.40;;;;;;4823287;29;20038;-75
2021/03/05 03:46:33;;;;;;;5.05;1.45;;;3.20;96.30;;;;;;4821297;29;20038;-75
2021/03/05 03:49:05;;;;;;;8.60;2.22;;;3.20;96.40;;;;;;4822320;29;20212;-75
2021/03/05 03:51:36;;;;;;;11.95;1.30;;;3.10;96.40;;;;;;4822282;29;20038;-75
2021/03/05 03:54:02;;;;;;;7.38;1.58;;;3.20;96.40;;;;;;4806212;29;20117;-75
2021/03/05 03:56:32;;;;;;;4.13;1.38;;;3.20;96.30;;;;;;4822009;29;20597;-75
2021/03/05 03:59:01;;;;;;;5.05;1.80;;;3.30;96.30;;;;;;4823467;29;20028;-76
2021/03/05 04:01:27;;;;;;;8.82;2.38;;;3.20;96.20;;;;;;4822022;29;20035;-76
2021/03/05 04:03:54;;;;;;;5.38;1.50;;;3.20;96.30;;;;;;4821663;29;20046;-75
2021/03/05 04:06:24;;;;;;;9.18;1.90;;;3.10;96.30;;;;;;4821955;29;20053;-76
2021/03/05 04:08:52;;;;;;;8.73;2.05;;;3.10;96.20;;;;;;4821777;29;20351;-76
2021/03/05 04:11:18;;;;;;;;;;;3.10;96.20;;;;;;4823606;29;20461;-76
2021/03/05 04:13:45;;;;;;;5.95;1.20;;;3.10;96.10;;;;;;4822399;29;19924;-76
2021/03/05 04:16:11;;;;;;;3.40;1.40;;;3.00;96.10;;;;;;4821305;29;20035;-76
2021/03/05 04:18:39;;;;;;;8.55;1.83;;;2.90;96.20;;;;;;4805293;29;20048;-75
2021/03/05 04:21:15;;;;;;;5.40;1.65;;;2.90;96.30;;;;;;4821844;29;20377;-77
2021/03/05 04:23:41;;;;;;;7.10;2.08;;;2.90;96.40;;;;;;4821804;29;20063;-78
2021/03/05 04:26:06;;;;;;;6.47;1.80;;;2.90;96.30;;;;;;4822944;29;20030;-77
2021/03/05 04:28:32;;;;;;;4.68;1.63;;;2.90;96.30;;;;;;4821372;29;20106;-74
2021/03/05 04:30:58;;;;;;;5.72;1.50;;;2.90;96.30;;;;;;4821320;29;20038;-75
2021/03/05 04:33:23;;;;;;;8.90;1.45;;;3.00;96.40;;;;;;4805114;29;20061;-76
2021/03/05 04:35:49;;;;;;;9.15;1.70;;;2.80;96.30;;;;;;4821148;29;20047;-76
2021/03/05 04:38:15;;;;;;;4.20;1.30;;;2.80;96.30;;;;;;4806463;29;20045;-76
2021/03/05 04:40:40;;;;;;;10.20;2.00;;;2.80;96.40;;;;;;4821314;29;20374;-75
2021/03/05 04:43:06;;;;;;;8.40;1.60;;;2.80;96.30;;;;;;4820792;29;20038;-77
2021/03/05 04:45:31;;;;;;;8.18;1.60;;;2.80;96.30;;;;;;4821354;29;20180;-76
2021/03/05 04:47:58;;;;;;;5.03;1.10;;;2.80;96.30;;;;;;4820827;29;20114;-75
2021/03/05 04:50:23;;;;;;;4.15;1.55;;;2.70;96.30;;;;;;4820974;29;20179;-77
2021/03/05 04:52:49;;;;;;;8.20;1.70;;;2.60;96.30;;;;;;4822819;29;20454;-76
2021/03/05 04:55:15;;;;;;;9.23;1.88;;;2.60;96.40;;;;;;4821140;29;20045;-76
2021/03/05 04:57:40;;;;;;;5.85;1.40;;;2.60;96.70;;;;;;4820278;29;20492;-77
2021/03/05 05:00:06;;;;;;;9.73;2.05;;;2.50;96.50;;;;;;4820963;29;20087;-77
2021/03/05 05:02:32;;;;;;;5.82;1.83;;;2.50;96.50;;;;;;4820981;29;20409;-76
2021/03/05 05:04:58;;;;;;;9.48;1.73;;;2.50;96.50;;;;;;4822396;29;20034;-75
2021/03/05 05:07:23;;;;;;;7.38;1.67;;;2.50;96.50;;;;;;4820904;29;20774;-76
2021/03/05 05:09:49;;;;;;;6.25;1.15;;;2.50;96.50;;;;;;4804667;29;20047;-77
2021/03/05 05:12:14;;;;;;;6.72;1.50;;;2.50;96.60;;;;;;4820752;29;20056;-76
2021/03/05 05:14:40;;;;;;;9.27;2.00;;;2.50;96.50;;;;;;4820799;29;20069;-75
2021/03/05 05:17:06;;;;;;;6.72;1.40;;;2.50;96.50;;;;;;4822320;29;20102;-75
2021/03/05 05:19:31;;;;;;;6.78;1.92;;;2.50;96.50;;;;;;4820870;29;20386;-76
2021/03/05 05:21:57;;;;;;;4.82;1.40;;;2.50;96.50;;;;;;4820554;29;20038;-75
2021/03/05 05:24:23;;;;;;;6.13;1.50;;;2.60;96.50;;;;;;4803993;29;20045;-74
2021/03/05 05:26:49;;;;;;;5.68;1.67;;;2.50;96.40;;;;;;4804453;29;20054;-75
2021/03/05 05:29:14;;;;;;;5.22;1.40;;;2.50;96.40;;;;;;4822117;29;20034;-76
2021/03/05 05:31:40;;;;;;;3.63;1.10;;;2.60;96.40;;;;;;4820609;29;20045;-76
2021/03/05 05:34:06;;;;;;;10.15;1.70;;;2.50;96.30;;;;;;4820859;29;20291;-75
2021/03/05 05:36:32;;;;;;;5.15;1.60;;;2.50;96.40;;;;;;4820555;29;20050;-77
2021/03/05 05:38:58;;;;;;;5.60;1.73;;;2.50;96.40;;;;;;4820537;29;20066;-75
2021/03/05 05:41:24;;;;;;;15.27;2.47;;;2.50;96.40;;;;;;4804190;29;20384;-76
2021/03/05 05:43:50;;;;;;;4.63;1.42;;;2.50;96.30;;;;;;4821941;29;20106;-77
2021/03/05 05:46:19;;;;;;;3.78;1.23;;;2.50;96.50;;;;;;4820548;29;20122;-77
2021/03/05 05:48:47;;;;;;;9.40;1.70;;;2.50;96.30;;;;;;4804195;29;20084;-76
2021/03/05 05:51:19;;;;;;;6.10;1.30;;;2.60;96.30;;;;;;4820435;29;20054;-75
2021/03/05 05:53:46;;;;;;;6.45;1.77;;;2.50;96.30;;;;;;4820164;29;20098;-76
2021/03/05 05:56:14;;;;;;;6.20;1.53;;;2.40;96.40;;;;;;4805918;29;20652;-75
2021/03/05 05:58:40;;;;;;;17.17;4.65;;;2.50;96.50;;;;;;4820193;29;20343;-75
2021/03/05 06:01:06;;;;;;;9.10;1.77;;;2.50;96.50;;;;;;4819669;29;20050;-76
2021/03/05 06:03:33;;;;;;;9.07;1.30;;;2.50;96.40;;;;;;4803964;29;20145;-76
2021/03/05 06:06:00;;;;;;;8.10;1.92;;;2.40;96.40;;;;;;4820131;29;20098;-77
2021/03/05 06:08:27;;;;;;;10.53;1.60;;;2.50;96.40;;;;;;4821379;29;20030;-77
2021/03/05 06:10:53;;;;;;;10.57;2.13;;;2.50;96.40;;;;;;4824944;29;20022;-76
2021/03/05 06:13:19;;;;;;;8.73;1.80;;;2.50;96.40;;;;;;4823135;29;20461;-77
2021/03/05 06:16:05;;;;;;;6.63;2.35;;;2.50;96.40;;;;;;4823321;29;20088;-76
2021/03/05 06:18:31;;;;;;;13.05;3.45;;;2.40;96.40;;;;;;4823144;29;20062;-77
2021/03/05 06:20:58;;;;;;;9.32;1.92;;;2.60;96.40;;;;;;4808867;29;20046;-78
2021/03/05 06:23:24;;;;;;;4.38;2.05;;;2.60;96.70;;;;;;4825095;29;20110;-81
2021/03/05 06:25:58;;;;;;;7.47;2.10;;;2.60;96.60;;;;;;4811401;29;20031;-79
2021/03/05 06:28:24;;;;;;;10.80;2.17;;;2.70;96.30;;;;;;4826221;29;20378;-77
2021/03/05 06:30:50;;;;;;;10.70;2.38;;;2.60;96.20;;;;;;4809976;29;20058;-77
2021/03/05 06:33:31;;;;;;;6.57;2.08;;;2.60;96.40;;;;;;4825900;29;20038;-81
2021/03/05 06:36:22;;;;;;;9.07;2.28;;;2.60;96.30;;;;;;4826020;29;20202;-80
2021/03/05 06:38:48;;;;;;;6.32;2.15;;;2.60;96.30;;;;;;4825270;29;20377;-78
2021/03/05 06:41:21;;;;;;;8.90;2.50;;;2.70;96.40;;;;;;4827488;29;20034;-79
2021/03/05 06:43:48;;;;;;;8.35;2.28;;;2.60;96.30;;;;;;4826565;29;20187;-78
2021/03/05 06:46:38;;;;;;;9.30;2.28;;;2.70;96.30;;;;;;4827155;29;20056;-93
2021/03/05 06:49:07;;;;;;;8.73;2.03;;;2.70;96.20;;;;;;4810625;29;20045;-82
2021/03/05 06:51:33;;;;;;;13.63;2.30;;;2.80;96.20;;;;;;4830061;29;20042;-82
2021/03/05 06:54:05;;;;;;;12.90;2.65;;;2.70;96.10;;;;;;4825336;29;20073;-81
2021/03/05 06:56:34;;;;;;;10.63;2.40;;;2.70;96.10;;;;;;4825288;29;20110;-83
2021/03/05 06:59:05;;;;;;;9.20;2.25;;;2.60;96.10;;;;;;4827095;29;20053;-85
2021/03/05 07:01:32;;;;;;;10.05;2.65;;;2.60;96.20;;;;;;4825367;29;20518;-84
2021/03/05 07:04:09;;;;;;;12.15;2.58;;;2.60;96.20;;;;;;4824165;29;20107;-81
2021/03/05 07:06:35;;;;;;;8.98;2.67;;;2.60;96.20;;;;;;4824312;29;20050;-78
2021/03/05 07:09:02;;;;;;;6.20;2.35;;;2.60;96.20;;;;;;4824274;29;20138;-77
2021/03/05 07:11:46;;;;;;;7.80;2.10;;;2.60;96.20;;;;;;4823815;29;20083;-75
2021/03/05 07:14:12;;;;;;;9.65;2.53;;;2.70;96.10;;;;;;4825120;29;20357;-77
2021/03/05 07:16:48;;;;;;;12.70;2.72;;;2.70;96.40;;;;;;4807521;29;20050;-77
2021/03/05 07:19:19;;;;;;;11.65;3.50;;;2.70;96.10;;;;;;4822894;29;20259;-76
2021/03/05 07:21:47;;;;;;;9.15;2.50;;;2.80;96.10;;;;;;4822705;29;20051;-76
2021/03/05 07:24:18;;;;;;;9.80;2.63;;;2.80;96.00;;;;;;4806863;29;20473;-75
2021/03/05 07:27:02;;;;;;;14.70;2.80;;;2.90;96.00;;;;;;4822981;29;20632;-75
2021/03/05 07:29:37;;;;;;;13.85;3.17;;;3.00;95.90;;;;;;4823804;29;20022;-80
2021/03/05 07:32:39;;;;;;;10.60;3.08;;;2.90;95.70;;;;;;4808694;29;20026;-78
2021/03/05 07:35:06;;;;;;;10.57;2.63;;;2.90;95.80;;;;;;4792678;29;20061;-77
2021/03/05 07:37:46;;;;;;;9.07;2.77;;;2.90;95.80;;;;;;4821821;29;20035;-79
2021/03/05 07:40:14;;;;;;;7.95;1.92;;;3.00;95.80;;;;;;4821862;29;20075;-78
2021/03/05 07:42:40;;;;;;;11.00;2.25;;;3.00;95.70;;;;;;4822004;29;20151;-77
2021/03/05 07:45:11;;;;;;;8.38;2.75;;;3.00;95.80;;;;;;4806137;29;20142;-81
2021/03/05 07:47:39;;;;;;;15.80;4.38;;;3.00;95.70;;;;;;4806774;29;20030;-79
2021/03/05 07:50:08;;;;;;;;;;;3.00;95.70;;;;;;4808034;29;20038;-76
2021/03/05 07:52:34;;;;;;;10.07;3.20;;;3.20;95.70;;;;;;4822153;29;20014;-79
2021/03/05 07:55:00;;;;;;;9.23;2.78;;;3.20;95.50;;;;;;4822278;29;20034;-79
2021/03/05 07:57:29;;;;;;;14.18;2.92;;;3.20;95.50;;;;;;4822187;29;20187;-78
2021/03/05 07:59:56;;;;;;;6.35;2.20;;;3.20;95.60;;;;;;4822479;29;20102;-78
2021/03/05 08:02:23;;;;;;;4.63;1.73;;;3.30;95.50;;;;;;4805965;29;20022;-80
2021/03/05 08:04:49;;;;;;;15.18;2.80;;;3.30;95.30;;;;;;4824789;29;20030;-81
2021/03/05 08:07:16;;;;;;;9.65;2.38;;;3.40;95.30;;;;;;4822345;29;20201;-81
2021/03/05 08:09:42;;;;;;;7.25;2.50;;;3.40;95.30;;;;;;4821429;29;20061;-75
2021/03/05 08:12:31;;;;;;;10.45;3.05;;;3.30;95.20;;;;;;4821834;29;20046;-81
2021/03/05 08:15:17;;;;;;;5.95;2.33;;;3.40;95.30;;;;;;4822559;29;20086;-79
2021/03/05 08:17:46;;;;;;;15.15;2.45;;;3.40;95.20;;;;;;4806085;29;20444;-78
2021/03/05 08:20:35;;;;;;;20.25;2.15;;;3.60;95.20;;;;;;4824040;29;20034;-83
2021/03/05 08:23:02;;;;;;;7.65;2.55;;;3.70;95.10;;;;;;4822214;29;20053;-78
2021/03/05 08:25:58;;;;;;;17.05;3.33;;;3.80;95.00;;;;;;4819677;29;20057;-78
2021/03/05 08:28:39;;;;;;;16.63;2.77;;;3.80;95.00;;;;;;4817630;29;20046;-80
2021/03/05 08:31:35;;;;;;;10.98;2.40;;;3.90;94.70;;;;;;4821201;29;20061;-80
2021/03/05 08:34:27;;;;;;;11.18;2.97;;;4.00;94.60;;;;;;4786267;29;20042;-77
2021/03/05 08:36:53;;;;;;;7.45;2.00;;;3.90;94.70;;;;;;4809088;29;20086;-78
2021/03/05 08:39:23;;;;;;;11.57;2.42;;;3.90;94.70;;;;;;4805225;29;20503;-84
2021/03/05 08:41:49;;;;;;;11.07;2.40;;;4.00;94.70;;;;;;4806186;29;20049;-81
2021/03/05 08:44:15;;;;;;;12.68;2.60;;;4.00;94.60;;;;;;4823272;29;20034;-78
2021/03/05 08:46:40;;;;;;;7.28;2.25;;;4.20;94.60;;;;;;4821469;29;20106;-80
2021/03/05 08:49:06;;;;;;;8.30;1.98;;;4.20;94.50;;;;;;4820932;29;20038;-79
2021/03/05 08:51:34;;;;;;;8.85;2.67;;;4.30;94.50;;;;;;4820665;29;20077;-76
2021/03/05 08:54:00;;;;;;;11.50;2.33;;;4.30;94.40;;;;;;4804575;29;20042;-77
2021/03/05 08:56:27;;;;;;;8.68;2.33;;;4.30;94.50;;;;;;4804635;29;20318;-73
2021/03/05 08:59:03;;;;;;;11.05;2.47;;;4.50;94.50;;;;;;4822466;29;20062;-77
2021/03/05 09:01:29;;;;;;;10.25;2.00;;;4.70;94.40;;;;;;4820862;29;20103;-78
2021/03/05 09:04:13;;;;;;;7.63;2.00;;;5.30;94.70;;;;;;4820465;29;20125;-77
2021/03/05 09:06:58;;;;;;;13.90;4.40;;;6.00;93.90;;;;;;4820540;29;20077;-76
2021/03/05 09:09:30;;;;;;;11.27;3.08;;;6.80;93.20;;;;;;4820567;29;20058;-76
2021/03/05 09:12:12;;;;;;;9.45;2.08;;;7.80;92.30;;;;;;4820589;29;20054;-76
2021/03/05 09:14:39;;;;;;;7.80;1.95;;;8.80;91.50;;;;;;4820547;29;20054;-77
2021/03/05 09:17:06;;;;;;;10.32;1.90;;;9.10;87.80;;;;;;4806135;29;20031;-78
2021/03/05 09:19:38;;;;;;;8.98;1.88;;;9.90;88.10;;;;;;4820550;29;20069;-76
2021/03/05 09:22:25;;;;;;;8.30;1.88;;;10.80;83.70;;;;;;4804123;29;20493;-76
2021/03/05 09:24:52;;;;;;;17.47;2.60;;;11.60;80.30;;;;;;4804198;29;20115;-77
2021/03/05 09:27:19;;;;;;;6.13;2.25;;;12.10;79.10;;;;;;4820670;29;20038;-75
2021/03/05 09:29:44;;;;;;;8.60;1.75;;;12.80;75.20;;;;;;4820432;29;20045;-76
2021/03/05 09:32:10;;;;;;;7.82;1.73;;;12.70;72.20;;;;;;4805663;29;20034;-76
2021/03/05 09:34:48;;;;;;;9.23;2.05;;;13.20;70.00;;;;;;4804582;29;20043;-76
2021/03/05 09:37:18;;;;;;;10.63;2.58;;;13.60;68.20;;;;;;4804270;29;20122;-75
2021/03/05 09:39:46;;;;;;;11.30;1.80;;;14.10;66.20;;;;;;4819968;29;20397;-76
2021/03/05 09:42:11;;;;;;;8.05;2.03;;;14.00;62.30;;;;;;4804431;29;20045;-76
2021/03/05 09:44:41;;;;;;;7.82;1.77;;;14.30;60.90;;;;;;4824079;29;20038;-75
2021/03/05 09:47:07;;;;;;;15.02;2.78;;;14.70;60.20;;;;;;4825269;29;20026;-78
2021/03/05 09:49:33;;;;;;;12.07;2.80;;;15.20;57.60;;;;;;4807374;29;20488;-78
2021/03/05 09:51:59;;;;;;;11.98;2.03;;;15.50;55.20;;;;;;4823952;29;20126;-78
2021/03/05 09:54:41;;;;;;;10.77;2.25;;;16.30;54.40;;;;;;4807475;29;20481;-77
2021/03/05 09:57:07;;;;;;;8.07;2.10;;;16.10;53.60;;;;;;4807176;29;20050;-77
2021/03/05 09:59:48;;;;;;;13.27;2.42;;;16.30;52.00;;;;;;4807631;29;20030;-78
2021/03/05 10:02:21;;;;;;;6.05;1.77;;;17.20;51.20;;;;;;4825456;29;20458;-78
2021/03/05 10:04:51;;;;;;;7.00;1.70;;;17.30;49.50;;;;;;4824109;29;20123;-78
2021/03/05 10:07:18;;;;;;;11.00;3.60;;;17.90;48.30;;;;;;4807955;29;20042;-77
2021/03/05 10:09:44;;;;;;;10.95;3.08;;;18.60;46.60;;;;;;4823642;29;20110;-78
2021/03/05 10:12:11;;;;;;;7.20;1.83;;;18.70;45.40;;;;;;4807150;29;20031;-78
2021/03/05 10:14:39;;;;;;;8.38;1.88;;;18.50;45.00;;;;;;4823517;29;20037;-78
2021/03/05 10:17:17;;;;;;;12.85;2.65;;;17.80;45.20;;;;;;4824921;29;20033;-78
2021/03/05 10:19:43;;;;;;;2.85;1.52;;;17.90;44.90;;;;;;4807177;29;20042;-77
2021/03/05 10:22:11;;;;;;;6.25;1.70;;;18.30;44.20;;;;;;4807033;29;20082;-75
2021/03/05 10:24:37;;;;;;;11.35;3.38;;;18.20;42.70;;;;;;4822902;29;20509;-77
2021/03/05 10:27:21;;;;;;;19.52;2.80;;;18.60;42.40;;;;;;4807009;29;20071;-76
2021/03/05 10:29:52;;;;;;;7.63;1.75;;;18.80;42.20;;;;;;4822929;29;20664;-75
2021/03/05 10:32:29;;;;;;;3.95;1.50;;;19.10;41.50;;;;;;4824621;29;20046;-78
2021/03/05 10:34:57;;;;;;;12.00;2.67;;;19.60;40.90;;;;;;4807304;29;20442;-76
2021/03/05 10:37:24;;;;;;;;;;;20.10;39.80;;;;;;4823115;29;20038;-77
2021/03/05 10:39:51;;;;;;;9.32;1.80;;;19.80;39.30;;;;;;4807105;29;20003;-78
2021/03/05 10:42:19;;;;;;;4.80;1.67;;;20.60;38.70;;;;;;4823041;29;20418;-78
2021/03/05 10:44:46;;;;;;;3.25;1.15;;;20.30;37.00;;;;;;4822777;29;20038;-79
2021/03/05 10:47:14;;;;;;;4.10;1.40;;;20.50;37.30;;;;;;4824315;29;20030;-77
2021/03/05 10:49:41;;;;;;;4.07;1.70;;;20.10;36.90;;;;;;4822543;29;20058;-78
2021/03/05 10:52:10;;;;;;;6.68;1.02;;;19.10;37.20;;;;;;4806891;29;20129;-77
2021/03/05 10:54:36;;;;;;;2.45;0.93;;;19.10;37.30;;;;;;4821973;29;20342;-76
2021/03/05 10:57:02;;;;;;;7.20;1.50;;;18.10;36.90;;;;;;4822793;29;20049;-77
2021/03/05 10:59:28;;;;;;;4.57;1.58;;;18.20;37.80;;;;;;4822969;29;20476;-77
2021/03/05 11:01:54;;;;;;;5.80;1.60;;;18.60;38.00;;;;;;4808228;29;20358;-78
2021/03/05 11:04:23;;;;;;;5.68;1.10;;;19.20;37.40;;;;;;4821577;29;20077;-76
2021/03/05 11:06:50;;;;;;;5.05;1.50;;;19.10;36.30;;;;;;4822621;29;20096;-76
2021/03/05 11:09:20;;;;;;;5.82;1.38;;;20.00;36.20;;;;;;4822245;29;20053;-74
2021/03/05 11:11:46;;;;;;;3.42;0.90;;;20.30;34.50;;;;;;4806107;29;20069;-75
2021/03/05 11:14:13;;;;;;;4.97;1.17;;;19.70;34.10;;;;;;4807761;29;20472;-74
2021/03/05 11:16:40;;;;;;;7.25;1.17;;;19.70;34.70;;;;;;4821953;29;20038;-75
2021/03/05 11:19:06;;;;;;;2.55;1.30;;;19.90;34.30;;;;;;4805818;29;20103;-77
2021/03/05 11:21:32;;;;;;;6.80;1.50;;;20.10;33.90;;;;;;4822276;29;20043;-75
2021/03/05 11:23:59;;;;;;;4.07;1.30;;;20.10;34.20;;;;;;4822234;29;20579;-75
2021/03/05 11:26:25;;;;;;;7.28;3.10;;;19.80;34.20;;;;;;4806202;29;20046;-75
2021/03/05 11:28:52;;;;;;;4.50;1.10;;;20.10;33.90;;;;;;4823539;29;20124;-75
2021/03/05 11:31:20;;;;;;;2.65;0.90;;;19.90;34.10;;;;;;4822063;29;20126;-73
2021/03/05 11:33:46;;;;;;;2.80;0.80;;;19.70;32.90;;;;;;4805730;29;20038;-74
2021/03/05 11:36:13;;;;;;;5.10;0.90;;;19.50;32.80;;;;;;4805922;29;20039;-75
2021/03/05 11:38:44;;;;;;;3.83;0.98;;;19.90;33.30;;;;;;4805949;29;20049;-74
2021/03/05 11:41:10;;;;;;;2.20;1.10;;;20.50;32.20;;;;;;4824029;29;20030;-76
2021/03/05 11:43:39;;;;;;;2.17;1.20;;;20.60;32.30;;;;;;4821928;29;20380;-74
2021/03/05 11:46:05;;;;;;;6.00;1.58;;;20.40;31.60;;;;;;4821903;29;20156;-75
2021/03/05 11:48:30;;;;;;;19.25;1.75;;;19.60;32.70;;;;;;4821667;29;20121;-75
2021/03/05 11:50:56;;;;;;;4.18;0.82;;;18.50;32.60;;;;;;4821590;29;20046;-75
2021/03/05 11:53:21;;;;;;;2.20;0.90;;;17.50;32.90;;;;;;4805753;29;20205;-74
2021/03/05 11:55:47;;;;;;;6.85;1.15;;;16.90;33.50;;;;;;4823086;29;20030;-77
2021/03/05 11:58:13;;;;;;;2.53;0.90;;;16.10;33.60;;;;;;4821819;29;20047;-77
2021/03/05 12:00:38;;;;;;;3.03;0.77;;;16.00;34.20;;;;;;4821620;29;20038;-77
2021/03/05 12:03:05;;;;;;;2.30;0.90;;;15.80;34.00;;;;;;4801845;29;20142;-75
2021/03/05 12:05:30;;;;;;;4.38;0.95;;;15.10;34.30;;;;;;4802751;29;20031;-77
2021/03/05 12:07:56;;;;;;;5.90;1.25;;;14.80;34.50;;;;;;4805121;29;20172;-77
2021/03/05 12:10:22;;;;;;;3.67;0.82;;;14.40;34.90;;;;;;4803240;29;20093;-78
2021/03/05 12:12:47;;;;;;;5.55;0.90;;;13.80;35.40;;;;;;4803138;29;20051;-77
2021/03/05 12:15:14;;;;;;;2.90;0.80;;;13.70;35.90;;;;;;4802533;29;20417;-76
2021/03/05 12:17:39;;;;;;;4.18;1.15;;;13.60;35.80;;;;;;4802989;29;20108;-76
2021/03/05 12:20:05;;;;;;;3.47;1.02;;;13.20;36.00;;;;;;4803809;29;20031;-76
2021/03/05 12:22:31;;;;;;;5.13;0.90;;;12.80;36.50;;;;;;4802956;29;20039;-76
2021/03/05 12:24:56;;;;;;;5.55;1.00;;;12.80;37.00;;;;;;4803244;29;20054;-77
2021/03/05 12:27:23;;;;;;;3.30;0.77;;;12.50;36.00;;;;;;4801812;29;20103;-79
2021/03/05 12:29:49;;;;;;;3.30;1.00;;;12.50;36.20;;;;;;4803039;29;20136;-78
2021/03/05 12:32:14;;;;;;;4.55;1.15;;;12.50;36.50;;;;;;4804866;29;20055;-78
2021/03/05 12:34:41;;;;;;;7.75;1.00;;;12.40;37.10;;;;;;4802968;29;20134;-76
2021/03/05 12:37:07;;;;;;;3.70;0.80;;;12.40;37.70;;;;;;4802932;29;20371;-77
2021/03/05 12:39:33;;;;;;;2.00;0.63;;;12.30;38.00;;;;;;4802061;29;20080;-78
2021/03/05 12:41:58;;;;;;;4.82;1.00;;;12.00;37.20;;;;;;4802891;29;20051;-78
2021/03/05 12:44:24;;;;;;;5.22;0.80;;;12.00;37.20;;;;;;4801677;29;20118;-76
2021/03/05 12:46:49;;;;;;;2.47;0.50;;;12.20;38.60;;;;;;4804115;29;20023;-78
2021/03/05 12:49:15;;;;;;;3.17;0.80;;;12.00;36.10;;;;;;4802978;29;20103;-78
2021/03/05 12:51:41;;;;;;;2.88;1.17;;;11.80;35.80;;;;;;4801497;29;20051;-76
2021/03/05 12:54:06;;;;;;;2.05;0.52;;;11.80;36.10;;;;;;4795141;29;20097;-78
2021/03/05 12:56:32;;;;;;;4.90;0.77;;;11.60;35.70;;;;;;4784123;29;20059;-77
2021/03/05 12:58:58;;;;;;;5.65;1.15;;;11.30;36.00;;;;;;4784770;30;20092;-78
2021/03/05 13:01:24;;;;;;;3.08;0.70;;;11.20;36.80;;;;;;4798232;29;20043;-78